Time;durP1;ratioP1;P1;durP2;ratioP2;P2;SDS_P1;SDS_P2;PMS_P1;PMS_P2;Temp;Humidity;BMP_temperature;BMP_pressure;BME280_temperature;BME280_humidity;BME280_pressure;Samples;Min_cycle;Max_cycle;Signal;HPM_P1;HPM_P2
2023/04/18 00:01:47;;;;;;;18.98;11.20;;;;;;;;;;4896358;29;20113;-69
2023/04/18 00:04:13;;;;;;;21.85;11.73;;;;;;;;;;4904014;29;20048;-70
2023/04/18 00:06:40;;;;;;;17.83;11.95;;;;;;;;;;4896208;29;20070;-72
2023/04/18 00:09:06;;;;;;;19.83;12.10;;;;;;;;;;4882510;29;20044;-71
2023/04/18 00:11:33;;;;;;;16.38;11.75;;;;;;;;;;4882820;29;20055;-72
2023/04/18 00:13:59;;;;;;;18.48;12.02;;;;;;;;;;4894349;29;20055;-72
2023/04/18 00:16:27;;;;;;;17.55;11.98;;;7.70;99.90;;;;;;4899361;29;20044;-72
2023/04/18 00:18:53;;;;;;;20.17;11.63;;;;;;;;;;4897925;29;20476;-72
2023/04/18 00:21:22;;;;;;;26.75;13.10;;;;;;;;;;4883712;29;20043;-72
2023/04/18 00:23:48;;;;;;;17.27;11.52;;;;;;;;;;4899297;29;20055;-71
2023/04/18 00:26:14;;;;;;;16.40;11.25;;;;;;;;;;4889542;29;20412;-72
2023/04/18 00:28:40;;;;;;;16.33;11.48;;;;;;;;;;4882411;29;20131;-72
2023/04/18 00:31:06;;;;;;;16.35;11.25;;;;;;;;;;4882677;29;20040;-72
2023/04/18 00:33:33;;;;;;;19.52;12.00;;;;;;;;;;4899354;29;20490;-72
2023/04/18 00:35:59;;;;;;;23.10;12.40;;;;;;;;;;4882073;29;20511;-72
2023/04/18 00:38:25;;;;;;;17.17;12.05;;;;;;;;;;4882994;29;20053;-72
2023/04/18 00:40:51;;;;;;;27.83;12.73;;;;;;;;;;4887120;29;20040;-72
2023/04/18 00:43:17;;;;;;;19.42;12.35;;;;;;;;;;4881949;29;20103;-72
2023/04/18 00:45:44;;;;;;;20.17;11.75;;;;;;;;;;4868294;29;20048;-72
2023/04/18 00:48:10;;;;;;;17.38;11.43;;;;;;;;;;4867296;29;20050;-73
2023/04/18 00:50:36;;;;;;;17.65;11.25;;;7.70;99.90;;;;;;4882500;29;20048;-73
2023/04/18 00:53:04;;;;;;;16.27;10.77;;;;;;;;;;4888801;29;20104;-73
2023/04/18 00:55:30;;;;;;;14.70;10.15;;;;;;;;;;4882575;29;20067;-73
2023/04/18 00:57:56;;;;;;;14.43;9.40;;;;;;;;;;4884282;29;20564;-73
2023/04/18 01:00:22;;;;;;;12.23;8.38;;;;;;;;;;4881587;29;20080;-73
2023/04/18 01:02:51;;;;;;;11.68;8.38;;;;;;;;;;4908077;29;20040;-72
2023/04/18 01:05:19;;;;;;;13.32;8.65;;;;;;;;;;4892685;29;20061;-72
2023/04/18 01:07:46;;;;;;;13.57;8.65;;;;;;;;;;4866685;29;20115;-72
2023/04/18 01:10:12;;;;;;;19.90;9.55;;;;;;;;;;4867031;29;20489;-72
2023/04/18 01:12:38;;;;;;;14.38;9.10;;;;;;;;;;4896375;29;20080;-72
2023/04/18 01:15:05;;;;;;;13.93;9.02;;;7.30;99.90;;;;;;4895266;29;20044;-72
2023/04/18 01:17:33;;;;;;;15.35;8.45;;;;;;;;;;4881528;29;20040;-72
2023/04/18 01:20:00;;;;;;;12.82;8.23;;;;;;;;;;4881415;29;20048;-72
2023/04/18 01:22:26;;;;;;;15.55;9.68;;;;;;;;;;4886456;29;20043;-72
2023/04/18 01:24:53;;;;;;;14.77;9.80;;;;;;;;;;4865917;29;20076;-73
2023/04/18 01:27:19;;;;;;;12.52;8.95;;;;;;;;;;4895231;29;20396;-72
2023/04/18 01:29:45;;;;;;;15.55;9.07;;;;;;;;;;4884601;29;20051;-73
2023/04/18 01:32:11;;;;;;;14.30;9.75;;;;;;;;;;4888583;29;20444;-73
2023/04/18 01:34:37;;;;;;;17.38;10.15;;;;;;;;;;4896710;29;20091;-72
2023/04/18 01:37:03;;;;;;;15.30;9.70;;;;;;;;;;4867398;29;20040;-72
2023/04/18 01:39:29;;;;;;;17.95;10.48;;;;;;;;;;4881459;29;20401;-73
2023/04/18 01:41:55;;;;;;;16.05;10.65;;;;;;;;;;4881315;29;20060;-73
2023/04/18 01:44:21;;;;;;;15.15;10.43;;;;;;;;;;4892707;29;20044;-73
2023/04/18 01:46:48;;;;;;;17.73;10.85;;;;;;;;;;4884663;29;20079;-73
2023/04/18 01:49:15;;;;;;;19.92;10.13;;;;;;;;;;4884846;29;20037;-73
2023/04/18 01:51:42;;;;;;;15.02;10.10;;;;;;;;;;4884746;29;20037;-73
2023/04/18 01:54:10;;;;;;;16.13;9.93;;;;;;;;;;4886287;29;20052;-73
2023/04/18 01:56:36;;;;;;;15.82;9.40;;;;;;;;;;4869330;29;20053;-71
2023/04/18 01:59:02;;;;;;;15.68;9.45;;;;;;;;;;4896369;29;20079;-71
2023/04/18 02:01:28;;;;;;;13.25;9.13;;;;;;;;;;4890619;29;20040;-71
2023/04/18 02:03:54;;;;;;;13.82;9.25;;;;;;;;;;4891846;29;20474;-71
2023/04/18 02:06:20;;;;;;;18.52;10.52;;;;;;;;;;4875175;29;20052;-71
2023/04/18 02:08:46;;;;;;;16.90;8.30;;;;;;;;;;4901433;29;20036;-71
2023/04/18 02:11:12;;;;;;;14.82;8.77;;;;;;;;;;4886283;29;20110;-71
2023/04/18 02:13:38;;;;;;;14.07;8.07;;;;;;;;;;4897242;29;20040;-70
2023/04/18 02:16:04;;;;;;;11.18;8.02;;;7.00;99.90;;;;;;4891651;29;20387;-70
2023/04/18 02:18:33;;;;;;;14.35;8.52;;;;;;;;;;4901745;29;20051;-70
2023/04/18 02:20:59;;;;;;;14.68;7.88;;;;;;;;;;4918261;29;20040;-70
2023/04/18 02:23:25;;;;;;;12.93;7.60;;;;;;;;;;4886078;29;20504;-70
2023/04/18 02:25:52;;;;;;;11.60;7.82;;;;;;;;;;4878670;29;20499;-70
2023/04/18 02:28:18;;;;;;;13.30;9.52;;;;;;;;;;4903623;29;20100;-69
2023/04/18 02:30:44;;;;;;;12.80;8.13;;;;;;;;;;4884358;29;20504;-70
2023/04/18 02:33:10;;;;;;;11.55;8.23;;;;;;;;;;4895546;29;20099;-69
2023/04/18 02:35:37;;;;;;;10.38;7.20;;;;;;;;;;4880659;29;20045;-69
2023/04/18 02:38:03;;;;;;;11.48;7.47;;;;;;;;;;4908511;29;20392;-69
2023/04/18 02:40:29;;;;;;;10.90;7.53;;;;;;;;;;4886046;29;20050;-70
2023/04/18 02:42:55;;;;;;;10.88;7.10;;;;;;;;;;4884189;29;20041;-70
2023/04/18 02:45:21;;;;;;;9.02;6.30;;;;;;;;;;4885269;29;20045;-70
2023/04/18 02:47:47;;;;;;;12.75;6.63;;;;;;;;;;4884949;29;20067;-70
2023/04/18 02:50:13;;;;;;;9.20;7.20;;;;;;;;;;4917744;29;20119;-69
2023/04/18 02:52:40;;;;;;;10.48;6.72;;;;;;;;;;4890248;29;20430;-70
2023/04/18 02:55:06;;;;;;;10.88;6.80;;;;;;;;;;4904474;29;20099;-70
2023/04/18 02:57:32;;;;;;;10.43;6.75;;;;;;;;;;4900753;29;20084;-70
2023/04/18 02:59:58;;;;;;;12.85;6.85;;;;;;;;;;4907005;29;20036;-70
2023/04/18 03:02:24;;;;;;;10.20;6.60;;;;;;;;;;4900590;29;20047;-69
2023/04/18 03:04:50;;;;;;;9.82;6.35;;;;;;;;;;4884677;29;20461;-70
2023/04/18 03:07:16;;;;;;;10.77;6.43;;;;;;;;;;4891427;29;20052;-70
2023/04/18 03:09:42;;;;;;;9.13;6.30;;;;;;;;;;4896958;29;20083;-70
2023/04/18 03:12:08;;;;;;;8.57;6.05;;;;;;;;;;4900310;29;20055;-69
2023/04/18 03:14:34;;;;;;;11.40;6.60;;;;;;;;;;4900475;29;20040;-71
2023/04/18 03:17:01;;;;;;;9.73;6.13;;;;;;;;;;4889367;29;20100;-71
2023/04/18 03:19:27;;;;;;;10.32;5.65;;;;;;;;;;4892018;29;20122;-71
2023/04/18 03:21:53;;;;;;;8.77;5.75;;;;;;;;;;4897994;29;20032;-71
2023/04/18 03:24:19;;;;;;;10.20;6.03;;;;;;;;;;4900503;29;20052;-71
2023/04/18 03:26:45;;;;;;;10.40;6.28;;;;;;;;;;4868740;29;20044;-71
2023/04/18 03:29:12;;;;;;;7.60;6.28;;;;;;;;;;4883720;29;20123;-71
2023/04/18 03:31:38;;;;;;;7.13;5.65;;;;;;;;;;4885220;29;20056;-71
2023/04/18 03:34:04;;;;;;;8.38;6.60;;;;;;;;;;4899811;29;20063;-71
2023/04/18 03:36:30;;;;;;;8.75;6.35;;;;;;;;;;4900088;29;20040;-71
2023/04/18 03:38:56;;;;;;;10.10;6.43;;;;;;;;;;4891599;29;20444;-70
2023/04/18 03:41:22;;;;;;;11.73;6.55;;;;;;;;;;4881331;29;20362;-70
2023/04/18 03:43:48;;;;;;;9.50;6.60;;;;;;;;;;4875089;29;20044;-71
2023/04/18 03:46:14;;;;;;;11.50;6.15;;;;;;;;;;4896572;29;20044;-70
2023/04/18 03:48:40;;;;;;;9.88;7.15;;;;;;;;;;4881667;29;20108;-71
2023/04/18 03:51:07;;;;;;;13.73;7.22;;;;;;;;;;4882875;29;20055;-71
2023/04/18 03:53:33;;;;;;;11.60;6.75;;;;;;;;;;4896712;29;20048;-71
2023/04/18 03:55:59;;;;;;;10.35;7.00;;;;;;;;;;4882612;29;20043;-71
2023/04/18 03:58:25;;;;;;;10.25;7.00;;;;;;;;;;4883025;29;20099;-71
2023/04/18 04:00:51;;;;;;;11.00;7.78;;;;;;;;;;4899573;29;20040;-71
2023/04/18 04:03:17;;;;;;;13.02;7.32;;;;;;;;;;4884401;29;20509;-71
2023/04/18 04:05:44;;;;;;;15.85;7.90;;;;;;;;;;4892759;29;20060;-70
2023/04/18 04:08:10;;;;;;;10.65;7.50;;;;;;;;;;4904054;29;20104;-71
2023/04/18 04:10:36;;;;;;;11.63;7.18;;;;;;;;;;4898181;29;20040;-70
2023/04/18 04:13:02;;;;;;;17.05;8.07;;;;;;;;;;4884536;29;20051;-71
2023/04/18 04:15:28;;;;;;;13.70;7.40;;;;;;;;;;4882225;29;20136;-71
2023/04/18 04:17:54;;;;;;;11.80;7.80;;;;;;;;;;4889314;29;20048;-71
2023/04/18 04:20:23;;;;;;;12.52;7.55;;;;;;;;;;4898907;29;20051;-71
2023/04/18 04:22:52;;;;;;;15.73;8.18;;;;;;;;;;4883876;29;20040;-71
2023/04/18 04:25:19;;;;;;;12.63;8.02;;;;;;;;;;4882213;29;20055;-71
2023/04/18 04:27:45;;;;;;;15.77;8.27;;;;;;;;;;4878221;29;20130;-71
2023/04/18 04:30:12;;;;;;;16.63;8.95;;;;;;;;;;4893125;29;20036;-70
2023/04/18 04:32:38;;;;;;;15.43;8.82;;;;;;;;;;4888428;29;20104;-69
2023/04/18 04:35:04;;;;;;;14.48;9.07;;;;;;;;;;4878533;29;20051;-70
2023/04/18 04:37:32;;;;;;;14.73;8.57;;;;;;;;;;4887347;29;20401;-69
2023/04/18 04:39:59;;;;;;;12.60;8.27;;;;;;;;;;4882363;29;20167;-69
2023/04/18 04:42:27;;;;;;;12.85;8.60;;;;;;;;;;4892622;29;20051;-70
2023/04/18 04:44:53;;;;;;;13.63;8.73;;;;;;;;;;4886252;29;20497;-70
2023/04/18 04:47:19;;;;;;;17.42;9.45;;;;;;;;;;4898967;29;20438;-70
2023/04/18 04:49:45;;;;;;;16.65;10.43;;;;;;;;;;4882112;29;20044;-70
2023/04/18 04:52:11;;;;;;;15.32;9.40;;;;;;;;;;4889640;29;20040;-70
2023/04/18 04:54:37;;;;;;;16.70;9.80;;;;;;;;;;4882986;29;20041;-69
2023/04/18 04:57:04;;;;;;;18.45;10.07;;;;;;;;;;4887778;29;20915;-70
2023/04/18 04:59:30;;;;;;;15.50;10.27;;;;;;;;;;4899578;29;20508;-70
2023/04/18 05:01:56;;;;;;;14.95;9.57;;;;;;;;;;4881706;29;20481;-70
2023/04/18 05:04:23;;;;;;;20.58;10.00;;;;;;;;;;4867533;29;20568;-70
2023/04/18 05:06:49;;;;;;;16.23;10.02;;;;;;;;;;4875055;29;20052;-70
2023/04/18 05:09:15;;;;;;;19.83;10.90;;;;;;;;;;4881763;29;20075;-70
2023/04/18 05:11:41;;;;;;;15.13;10.02;;;;;;;;;;4881609;29;20041;-71
2023/04/18 05:14:07;;;;;;;15.93;11.02;;;;;;;;;;4882528;29;20036;-72
2023/04/18 05:16:34;;;;;;;18.58;10.30;;;;;;;;;;4882488;29;20040;-72
2023/04/18 05:19:00;;;;;;;16.15;10.65;;;;;;;;;;4881977;29;20047;-72
2023/04/18 05:21:27;;;;;;;20.85;10.52;;;;;;;;;;4866191;29;20043;-70
2023/04/18 05:23:54;;;;;;;19.65;10.75;;;;;;;;;;4870060;29;20048;-72
2023/04/18 05:26:20;;;;;;;19.88;11.40;;;;;;;;;;4888783;29;20052;-73
2023/04/18 05:28:47;;;;;;;20.88;11.57;;;;;;;;;;4885722;29;20080;-73
2023/04/18 05:31:13;;;;;;;18.48;10.95;;;;;;;;;;4850884;29;20071;-72
2023/04/18 05:33:39;;;;;;;17.75;10.88;;;;;;;;;;4894821;29;20044;-72
2023/04/18 05:36:06;;;;;;;15.65;10.90;;;7.80;99.90;;;;;;4882612;29;20056;-71
2023/04/18 05:38:32;;;;;;;17.42;10.70;;;;;;;;;;4889337;29;20127;-71
2023/04/18 05:40:59;;;;;;;15.23;10.18;;;;;;;;;;4896366;29;20362;-70
2023/04/18 05:43:25;;;;;;;17.52;11.02;;;;;;;;;;4882511;29;20044;-71
2023/04/18 05:45:52;;;;;;;20.20;11.73;;;;;;;;;;4870445;29;20509;-72
2023/04/18 05:48:18;;;;;;;18.48;10.88;;;;;;;;;;4868194;29;20049;-71
2023/04/18 05:50:44;;;;;;;20.08;10.98;;;;;;;;;;4902754;29;20033;-76
2023/04/18 05:53:10;;;;;;;20.92;12.93;;;;;;;;;;4879423;29;20214;-72
2023/04/18 05:55:39;;;;;;;17.85;10.80;;;;;;;;;;4879160;29;20071;-72
2023/04/18 05:58:05;;;;;;;20.27;11.25;;;;;;;;;;4864272;29;20128;-75
2023/04/18 06:00:31;;;;;;;15.07;9.95;;;;;;;;;;4862687;29;20056;-72
2023/04/18 06:02:57;;;;;;;14.85;9.80;;;;;;;;;;4862583;29;20041;-71
2023/04/18 06:05:23;;;;;;;21.15;11.00;;;;;;;;;;4867977;29;20149;-71
2023/04/18 06:07:49;;;;;;;19.17;9.95;;;;;;;;;;4867365;29;20489;-71
2023/04/18 06:10:16;;;;;;;22.63;10.32;;;;;;;;;;4914185;29;20123;-72
2023/04/18 06:12:42;;;;;;;15.38;10.40;;;;;;;;;;4883349;29;20059;-72
2023/04/18 06:15:08;;;;;;;21.77;10.32;;;;;;;;;;4881306;29;20407;-72
2023/04/18 06:17:34;;;;;;;17.83;10.15;;;;;;;;;;4881095;29;20037;-72
2023/04/18 06:20:02;;;;;;;16.98;10.55;;;;;;;;;;4881248;29;20044;-72
2023/04/18 06:22:28;;;;;;;19.02;10.50;;;;;;;;;;4880805;29;20053;-72
2023/04/18 06:24:54;;;;;;;19.55;10.52;;;;;;;;;;4871822;29;20044;-72
2023/04/18 06:27:20;;;;;;;14.68;10.00;;;;;;;;;;4873429;29;20054;-72
2023/04/18 06:29:46;;;;;;;13.80;10.23;;;;;;;;;;4873393;29;20572;-71
2023/04/18 06:32:13;;;;;;;17.60;10.70;;;;;;;;;;4889417;29;20525;-72
2023/04/18 06:34:39;;;;;;;18.85;10.32;;;;;;;;;;4890255;29;20040;-71
2023/04/18 06:37:05;;;;;;;16.63;10.25;;;;;;;;;;4891477;29;20081;-71
2023/04/18 06:39:32;;;;;;;20.77;9.98;;;;;;;;;;4894151;29;20051;-73
2023/04/18 06:41:58;;;;;;;16.42;10.55;;;;;;;;;;4893005;29;20071;-72
2023/04/18 06:44:24;;;;;;;14.90;9.88;;;;;;;;;;4893718;29;20048;-72
2023/04/18 06:46:50;;;;;;;13.60;9.70;;;;;;;;;;4894721;29;20048;-71
2023/04/18 06:49:16;;;;;;;15.75;9.73;;;;;;;;;;4895017;29;20051;-73
2023/04/18 06:51:43;;;;;;;16.83;9.55;;;;;;;;;;4877591;29;20186;-72
2023/04/18 06:54:09;;;;;;;16.77;9.75;;;;;;;;;;4894399;29;20044;-72
2023/04/18 06:56:35;;;;;;;16.88;9.02;;;;;;;;;;4895360;29;20449;-72
2023/04/18 06:59:01;;;;;;;15.60;9.45;;;;;;;;;;4892026;29;20474;-73
2023/04/18 07:01:27;;;;;;;18.38;9.85;;;;;;;;;;4897612;29;20040;-73
2023/04/18 07:03:53;;;;;;;15.57;9.00;;;;;;;;;;4892835;29;20470;-73
2023/04/18 07:06:19;;;;;;;13.30;9.00;;;;;;;;;;4889003;29;20052;-73
2023/04/18 07:08:45;;;;;;;20.20;9.20;;;;;;;;;;4892811;29;20044;-73
2023/04/18 07:11:12;;;;;;;12.65;8.23;;;;;;;;;;4893446;29;20066;-72
2023/04/18 07:13:38;;;;;;;11.45;8.18;;;;;;;;;;4891647;29;20068;-73
2023/04/18 07:16:04;;;;;;;13.18;7.50;;;;;;;;;;4896831;29;20107;-72
2023/04/18 07:18:30;;;;;;;16.23;7.70;;;;;;;;;;4888462;29;20135;-73
2023/04/18 07:20:56;;;;;;;14.77;8.35;;;;;;;;;;4875945;29;20100;-70
2023/04/18 07:23:23;;;;;;;12.15;7.65;;;;;;;;;;4892548;29;20037;-70
2023/04/18 07:25:49;;;;;;;16.85;7.53;;;;;;;;;;4883647;29;20087;-70
2023/04/18 07:28:15;;;;;;;15.77;8.18;;;;;;;;;;4883167;29;20102;-71
2023/04/18 07:30:41;;;;;;;13.93;7.75;;;;;;;;;;4883321;29;20048;-69
2023/04/18 07:33:07;;;;;;;12.82;6.88;;;;;;;;;;4883369;29;20052;-72
2023/04/18 07:35:34;;;;;;;16.45;8.13;;;;;;;;;;4883090;29;20100;-72
2023/04/18 07:38:00;;;;;;;14.40;8.45;;;;;;;;;;4883490;29;20481;-72
2023/04/18 07:40:26;;;;;;;14.52;8.30;;;;;;;;;;4883560;29;20397;-72
2023/04/18 07:42:52;;;;;;;14.32;8.10;;;;;;;;;;4866868;29;20041;-71
2023/04/18 07:45:18;;;;;;;12.13;7.43;;;;;;;;;;4882162;29;20078;-71
2023/04/18 07:47:45;;;;;;;12.68;7.45;;;;;;;;;;4865932;29;20068;-70
2023/04/18 07:50:11;;;;;;;14.98;8.45;;;;;;;;;;4882349;29;20048;-70
2023/04/18 07:52:37;;;;;;;13.88;8.40;;;;;;;;;;4882923;29;20052;-70
2023/04/18 07:55:03;;;;;;;13.05;8.07;;;;;;;;;;4898741;29;20076;-70
2023/04/18 07:57:29;;;;;;;14.65;7.70;;;;;;;;;;4883206;29;20052;-70
2023/04/18 07:59:55;;;;;;;12.02;8.10;;;;;;;;;;4867728;29;20052;-70
2023/04/18 08:02:21;;;;;;;13.55;8.13;;;;;;;;;;4881644;29;20049;-70
2023/04/18 08:04:48;;;;;;;14.10;8.15;;;;;;;;;;4850006;29;20076;-70
2023/04/18 08:07:15;;;;;;;17.52;8.20;;;;;;;;;;4881865;29;20520;-70
2023/04/18 08:09:41;;;;;;;11.90;7.32;;;;;;;;;;4882654;29;20044;-70
2023/04/18 08:12:07;;;;;;;14.10;8.00;;;;;;;;;;4883114;29;20080;-70
2023/04/18 08:14:33;;;;;;;14.07;8.13;;;;;;;;;;4867144;29;20044;-70
2023/04/18 08:17:00;;;;;;;13.77;8.75;;;;;;;;;;4882729;29;20049;-70
2023/04/18 08:19:26;;;;;;;16.05;9.65;;;;;;;;;;4882589;29;20052;-70
2023/04/18 08:21:52;;;;;;;13.57;8.20;;;;;;;;;;4867125;29;20041;-70
2023/04/18 08:24:18;;;;;;;12.88;8.43;;;;;;;;;;4882355;29;20457;-69
2023/04/18 08:26:44;;;;;;;12.68;8.25;;;;;;;;;;4882472;29;20049;-69
2023/04/18 08:29:11;;;;;;;13.25;8.38;;;;;;;;;;4882507;29;20048;-69
2023/04/18 08:31:38;;;;;;;17.45;8.27;;;10.60;99.90;;;;;;4882064;29;20159;-69
2023/04/18 08:34:04;;;;;;;12.98;7.93;;;;;;;;;;4882780;29;20051;-69
2023/04/18 08:36:30;;;;;;;13.90;8.45;;;;;;;;;;4882256;29;20466;-69
2023/04/18 08:38:56;;;;;;;15.38;8.45;;;;;;;;;;4899013;29;20052;-70
2023/04/18 08:41:23;;;;;;;11.57;8.48;;;;;;;;;;4882342;29;20047;-70
2023/04/18 08:43:49;;;;;;;14.48;8.85;;;;;;;;;;4867004;29;20050;-69
2023/04/18 08:46:15;;;;;;;13.95;8.57;;;;;;;;;;4882061;29;20052;-70
2023/04/18 08:48:42;;;;;;;13.77;8.70;;;;;;;;;;4882355;29;20040;-69
2023/04/18 08:51:08;;;;;;;14.55;9.10;;;;;;;;;;4881242;29;20123;-70
2023/04/18 08:53:34;;;;;;;17.30;8.32;;;;;;;;;;4866726;29;20044;-70
2023/04/18 08:56:00;;;;;;;12.18;8.45;;;;;;;;;;4881679;29;20048;-70
2023/04/18 08:58:27;;;;;;;19.60;8.40;;;11.10;99.90;;;;;;4881807;29;20052;-70
2023/04/18 09:00:53;;;;;;;13.57;8.40;;;;;;;;;;4881799;29;20406;-70
2023/04/18 09:03:39;;;;;;;13.40;7.72;;;;;;;;;;4866435;29;20454;-70
2023/04/18 09:06:10;;;;;;;11.32;7.28;;;;;;;;;;4881333;29;20136;-70
2023/04/18 09:08:37;;;;;;;13.00;6.88;;;;;;;;;;4881543;29;20100;-70
2023/04/18 09:11:22;;;;;;;11.45;7.30;;;;;;;;;;4881955;29;20048;-70
2023/04/18 09:13:49;;;;;;;12.95;7.18;;;;;;;;;;4881849;29;20107;-70
2023/04/18 09:16:15;;;;;;;11.63;6.93;;;;;;;;;;4866222;29;20375;-70
2023/04/18 09:18:42;;;;;;;10.95;7.35;;;;;;;;;;4881830;29;20103;-70
2023/04/18 09:21:18;;;;;;;9.18;7.07;;;11.80;99.90;;;;;;4881654;29;20056;-70
2023/04/18 09:23:46;;;;;;;19.27;7.78;;;;;;;;;;4881748;29;20389;-70
2023/04/18 09:26:13;;;;;;;12.27;6.80;;;;;;;;;;4866382;29;20063;-70
2023/04/18 09:28:40;;;;;;;16.10;6.97;;;;;;;;;;4866251;29;20048;-70
2023/04/18 09:31:14;;;;;;;9.90;6.75;;;12.00;99.90;;;;;;4881709;29;20063;-75
2023/04/18 09:33:42;;;;;;;9.65;7.05;;;;;;;;;;4881779;29;20048;-70
2023/04/18 09:36:18;;;;;;;10.80;7.88;;;11.80;99.90;;;;;;4881218;29;20075;-70
2023/04/18 09:38:44;;;;;;;12.23;7.63;;;;;;;;;;4881253;29;20048;-70
2023/04/18 09:41:11;;;;;;;9.02;6.88;;;;;;;;;;4881363;29;20046;-70
2023/04/18 09:43:37;;;;;;;9.45;7.03;;;;;;;;;;4881465;29;20040;-69
2023/04/18 09:46:04;;;;;;;11.85;7.13;;;12.60;99.90;;;;;;4866010;29;20049;-69
2023/04/18 09:48:30;;;;;;;9.02;6.50;;;;;;;;;;4881308;29;20521;-70
2023/04/18 09:50:57;;;;;;;10.80;6.50;;;;;;;;;;4881241;29;20489;-72
2023/04/18 09:53:24;;;;;;;10.35;7.10;;;;;;;;;;4881470;29;20063;-74
2023/04/18 09:55:53;;;;;;;12.48;7.40;;;12.40;99.90;;;;;;4866154;29;20055;-74
2023/04/18 09:58:21;;;;;;;9.07;6.68;;;12.60;99.90;;;;;;4881206;29;20036;-71
2023/04/18 10:00:48;;;;;;;11.48;6.90;;;12.60;99.90;;;;;;4880364;29;20423;-71
2023/04/18 10:03:17;;;;;;;9.75;7.22;;;12.50;99.90;;;;;;4880961;29;20442;-71
2023/04/18 10:05:44;;;;;;;11.85;7.20;;;;;;;;;;4880967;29;20071;-71
2023/04/18 10:08:12;;;;;;;9.38;6.72;;;13.00;99.90;;;;;;4881118;29;20045;-71
2023/04/18 10:10:39;;;;;;;10.48;6.50;;;;;;;;;;4881157;29;20446;-71
2023/04/18 10:13:07;;;;;;;10.52;6.15;;;12.70;99.90;;;;;;4884132;29;20052;-71
2023/04/18 10:15:33;;;;;;;9.25;6.53;;;;;;;;;;4869506;29;20049;-71
2023/04/18 10:18:01;;;;;;;10.45;6.40;;;;;;;;;;4901481;29;20092;-71
2023/04/18 10:20:28;;;;;;;10.38;6.72;;;12.90;99.90;;;;;;4884847;29;20041;-71
2023/04/18 10:22:55;;;;;;;9.68;5.90;;;13.20;99.90;;;;;;4884697;29;20142;-71
2023/04/18 10:25:40;;;;;;;13.30;6.10;;;;;;;;;;4884870;29;20045;-71
2023/04/18 10:28:06;;;;;;;9.52;6.57;;;;;;;;;;4884495;29;20112;-72
2023/04/18 10:30:39;;;;;;;8.20;5.47;;;;;;;;;;4869228;29;20048;-72
2023/04/18 10:33:20;;;;;;;7.72;5.93;;;13.10;99.90;;;;;;4884599;29;20142;-72
2023/04/18 10:36:08;;;;;;;7.50;5.60;;;13.30;99.90;;;;;;4884595;29;20084;-71
2023/04/18 10:38:35;;;;;;;11.07;5.63;;;13.60;99.90;;;;;;4884385;29;20055;-71
2023/04/18 10:41:17;;;;;;;6.72;5.43;;;13.40;99.90;;;;;;4884279;29;20631;-71
2023/04/18 10:44:05;;;;;;;8.95;5.50;;;13.40;99.90;;;;;;4884502;29;20040;-71
2023/04/18 10:46:31;;;;;;;9.27;5.30;;;;;;;;;;4868951;29;20056;-72
2023/04/18 10:49:16;;;;;;;7.40;4.93;;;;;;;;;;4884282;29;20080;-74
2023/04/18 10:51:48;;;;;;;8.98;5.40;;;13.40;99.90;;;;;;4869482;29;20048;-73
2023/04/18 10:54:34;;;;;;;9.05;6.25;;;;;;;;;;4888514;29;20056;-73
2023/04/18 10:57:02;;;;;;;7.60;5.57;;;;;;;;;;4871561;29;20071;-72
2023/04/18 10:59:33;;;;;;;8.65;6.07;;;13.80;99.90;;;;;;4884810;29;20052;-73
2023/04/18 11:02:37;;;;;;;6.85;5.57;;;13.90;99.90;;;;;;4871550;29;20060;-72
2023/04/18 11:05:08;;;;;;;8.48;5.25;;;14.10;99.90;;;;;;4885199;29;20147;-73
2023/04/18 11:07:47;;;;;;;9.93;6.00;;;14.10;99.90;;;;;;4885604;29;20486;-73
2023/04/18 11:11:05;;;;;;;8.23;6.10;;;13.80;99.90;;;;;;4869765;29;20050;-73
2023/04/18 11:13:35;;;;;;;8.88;6.32;;;;;;;;;;4884263;29;20417;-74
2023/04/18 11:16:05;;;;;;;14.00;6.53;;;;;;;;;;4869313;29;20143;-72
2023/04/18 11:18:40;;;;;;;8.27;6.22;;;14.10;99.90;;;;;;4868717;29;20437;-73
2023/04/18 11:21:07;;;;;;;12.32;6.38;;;;;;;;;;4883843;29;20490;-73
2023/04/18 11:23:33;;;;;;;9.93;6.22;;;;;;;;;;4853058;29;20123;-73
2023/04/18 11:26:21;;;;;;;7.93;5.60;;;;;;;;;;4883601;29;20401;-73
2023/04/18 11:28:51;;;;;;;6.97;5.75;;;14.30;99.90;;;;;;4882588;29;20143;-73
2023/04/18 11:31:30;;;;;;;8.50;5.53;;;14.20;99.90;;;;;;4868132;29;20044;-74
2023/04/18 11:34:02;;;;;;;10.30;5.65;;;;;;;;;;4866971;29;20055;-73
2023/04/18 11:36:52;;;;;;;7.18;5.72;;;;;;;;;;4868528;29;20051;-73
2023/04/18 11:39:24;;;;;;;10.35;6.30;;;;;;;;;;4868255;29;20052;-73
2023/04/18 11:41:50;;;;;;;8.13;5.72;;;;;;;;;;4883464;29;20084;-74
2023/04/18 11:44:26;;;;;;;8.43;5.15;;;;;;;;;;4883354;29;20127;-73
2023/04/18 11:46:53;;;;;;;8.60;5.95;;;;;;;;;;4883309;29;20045;-72
2023/04/18 11:49:30;;;;;;;7.68;5.82;;;14.60;99.90;;;;;;4866857;29;20048;-72
2023/04/18 11:51:56;;;;;;;8.65;5.72;;;;;;;;;;4881445;29;20347;-72
2023/04/18 11:54:42;;;;;;;9.27;6.30;;;14.90;99.90;;;;;;4881132;29;20076;-72
2023/04/18 11:57:26;;;;;;;9.13;6.47;;;15.10;99.90;;;;;;4881370;29;20056;-72
2023/04/18 11:59:53;;;;;;;12.25;6.70;;;;;;;;;;4883285;29;20049;-73
2023/04/18 12:02:20;;;;;;;10.15;6.28;;;14.80;99.90;;;;;;4867043;29;20044;-72
2023/04/18 12:04:51;;;;;;;11.82;6.18;;;;;;;;;;4867160;29;20489;-71
2023/04/18 12:07:50;;;;;;;13.25;6.22;;;;;;;;;;4867258;29;20127;-71
2023/04/18 12:10:18;;;;;;;7.72;5.38;;;14.70;99.90;;;;;;4851568;29;20186;-71
2023/04/18 12:12:49;;;;;;;7.28;5.70;;;14.80;99.90;;;;;;4882949;29;20040;-71
2023/04/18 12:15:16;;;;;;;7.97;5.43;;;14.90;99.90;;;;;;4882594;29;20075;-71
2023/04/18 12:17:52;;;;;;;7.50;4.97;;;14.60;99.90;;;;;;4882287;29;20033;-71
2023/04/18 12:20:18;;;;;;;8.18;4.60;;;;;;;;;;4881222;29;20040;-71
2023/04/18 12:22:48;;;;;;;10.18;6.25;;;14.90;99.90;;;;;;4881288;29;20048;-71
2023/04/18 12:25:21;;;;;;;7.25;4.97;;;15.70;99.90;;;;;;4882643;29;20054;-71
2023/04/18 12:27:52;;;;;;;8.80;4.93;;;15.00;99.90;;;;;;4882463;29;20052;-71
2023/04/18 12:30:21;;;;;;;11.15;6.72;;;;;;;;;;4882542;29;20055;-71
2023/04/18 12:32:49;;;;;;;11.88;7.82;;;14.90;99.90;;;;;;4882456;29;20048;-71
2023/04/18 12:35:17;;;;;;;13.32;7.85;;;14.70;99.90;;;;;;4881686;29;20063;-72
2023/04/18 12:37:43;;;;;;;10.95;7.85;;;;;;;;;;4866965;29;20513;-71
2023/04/18 12:40:09;;;;;;;18.63;7.95;;;15.20;99.90;;;;;;4882548;29;20316;-72
2023/04/18 12:42:36;;;;;;;13.57;7.70;;;;;;;;;;4882201;29;20040;-71
2023/04/18 12:45:06;;;;;;;12.00;8.75;;;14.20;99.90;;;;;;4866836;29;20434;-72
2023/04/18 12:47:33;;;;;;;12.38;8.80;;;;;;;;;;4899209;29;20044;-69
2023/04/18 12:49:59;;;;;;;13.82;8.32;;;;;;;;;;4882438;29;20040;-79
2023/04/18 12:52:25;;;;;;;14.25;8.40;;;;;;;;;;4882415;29;20052;-72
2023/04/18 12:54:52;;;;;;;14.07;9.15;;;;;;;;;;4881914;29;20049;-70
2023/04/18 12:57:18;;;;;;;15.45;8.43;;;;;;;;;;4898633;29;20068;-71
2023/04/18 12:59:44;;;;;;;14.98;8.75;;;;;;;;;;4881812;29;20052;-70
2023/04/18 13:02:10;;;;;;;12.25;8.93;;;;;;;;;;4865130;29;20066;-71
2023/04/18 13:04:36;;;;;;;11.85;8.32;;;;;;;;;;4865552;29;20397;-71
2023/04/18 13:07:02;;;;;;;14.50;8.63;;;14.60;99.90;;;;;;4881533;29;20067;-70
2023/04/18 13:09:29;;;;;;;12.95;8.65;;;;;;;;;;4866227;29;20053;-70
2023/04/18 13:11:55;;;;;;;11.35;8.68;;;;;;;;;;4880786;29;20402;-70
2023/04/18 13:14:21;;;;;;;11.63;8.60;;;;;;;;;;4882081;29;20079;-70
2023/04/18 13:16:47;;;;;;;11.63;8.80;;;;;;;;;;4881570;29;20103;-70
2023/04/18 13:19:14;;;;;;;15.32;9.02;;;;;;;;;;4881918;29;20083;-69
2023/04/18 13:21:40;;;;;;;13.80;8.30;;;;;;;;;;4881551;29;20159;-69
2023/04/18 13:24:06;;;;;;;14.52;9.15;;;13.90;99.90;;;;;;4881541;29;20048;-69
2023/04/18 13:26:34;;;;;;;12.90;8.50;;;;;;;;;;4881544;29;20050;-69
2023/04/18 13:29:01;;;;;;;14.32;8.77;;;;;;;;;;4898267;29;20119;-71
2023/04/18 13:31:27;;;;;;;12.73;8.65;;;;;;;;;;4881504;29;20461;-72
2023/04/18 13:33:53;;;;;;;16.92;9.50;;;;;;;;;;4865872;29;20040;-71
2023/04/18 13:36:20;;;;;;;11.38;8.85;;;;;;;;;;4881361;29;20093;-71
2023/04/18 13:38:45;;;;;;;14.40;8.98;;;14.40;99.90;;;;;;4872180;29;20086;-71
2023/04/18 13:41:11;;;;;;;13.38;8.73;;;15.30;99.90;;;;;;4862797;29;20507;-71
2023/04/18 13:43:37;;;;;;;13.73;9.50;;;;;;;;;;4862894;29;20049;-70
2023/04/18 13:46:03;;;;;;;12.07;9.05;;;;;;;;;;4862946;29;20045;-71
2023/04/18 13:48:29;;;;;;;14.98;9.05;;;;;;;;;;4866340;29;20406;-71
2023/04/18 13:50:56;;;;;;;12.85;8.45;;;;;;;;;;4883452;29;20565;-71
2023/04/18 13:53:22;;;;;;;17.65;9.32;;;;;;;;;;4851044;29;20132;-71
2023/04/18 13:55:48;;;;;;;12.38;8.98;;;;;;;;;;4866481;29;20057;-71
2023/04/18 13:58:14;;;;;;;14.45;9.27;;;;;;;;;;4851575;29;20048;-71
2023/04/18 14:00:40;;;;;;;11.52;8.73;;;;;;;;;;4851202;29;20041;-71
2023/04/18 14:03:06;;;;;;;13.40;9.60;;;;;;;;;;4866770;29;20041;-71
2023/04/18 14:05:32;;;;;;;12.68;8.75;;;;;;;;;;4868104;29;20080;-71
2023/04/18 14:08:02;;;;;;;12.93;9.13;;;;;;;;;;4869263;29;20067;-71
2023/04/18 14:10:28;;;;;;;20.05;10.20;;;;;;;;;;4885038;29;20104;-69
2023/04/18 14:12:55;;;;;;;14.32;10.20;;;;;;;;;;4884897;29;20052;-69
2023/04/18 14:15:21;;;;;;;12.75;9.32;;;;;;;;;;4884673;29;20049;-69